Latest Weather Observations for Warrnambool

IDV60801

Issued at 11:31 am EST Wednesday 1 July 2015 (issued every 30 minutes, with the page automatically refreshed every 10 minutes)

About weather observations | Map of weather stations | Latest weather observations for VIC | Other Formats
Station Details ID: 090186 Name: WARRNAMBOOL AIRPORT NDB Lat: -38.29 Lon: 142.45 Height: 70.8 m
Data from the previous 72 hours. | See also: Recent months at Warrnambool
Date/Time
EST
Temp
°C
App
Temp
°C
Dew
Point
Rel
Hum
%
Delta-T
°C
Wind Press
QNH
hPa
Press
MSL
hPa
Rain
since 9 am
mm
Dir
 
Spd
km/h
Gust
km/h
Spd
kts
Gust
kts
01/11:30am 11.5 5.5 8.5 82 1.5 NNW 30 41 16 22 1025.5 1025.7 0.0
01/11:00am 10.3 5.7 8.2 87 1.0 NNW 22 32 12 17 1026.0 1026.2 0.0
01/10:30am 11.2 5.3 7.5 78 1.8 NNW 28 37 15 20 1026.1 1026.3 0.0
01/10:00am 9.6 4.5 7.7 88 0.9 NNW 24 32 13 17 1026.4 1026.6 0.0
01/09:30am 8.8 3.3 7.6 92 0.6 NNW 26 37 14 20 1026.8 1027.0 0.0
01/09:00am 8.2 3.0 7.1 93 0.5 NNW 24 32 13 17 1026.8 1027.0 0.0
01/08:30am 7.5 3.6 7.2 98 0.1 N 17 24 9 13 1026.8 1027.0 0.0
01/08:00am 7.6 3.3 7.2 97 0.2 N 19 22 10 12 1026.8 1027.0 0.0
01/07:30am 8.1 4.4 7.8 98 0.1 N 17 20 9 11 1026.8 1027.0 0.0
01/07:00am 8.5 4.8 7.9 96 0.3 NNW 17 22 9 12 1026.6 1026.8 0.0
01/06:30am 8.5 4.4 7.9 96 0.3 NNW 19 24 10 13 1026.6 1026.8 0.0
01/06:00am 8.2 4.8 7.6 96 0.3 N 15 19 8 10 1026.4 1026.6 0.0
01/05:30am 8.3 5.0 7.9 97 0.2 NNW 15 19 8 10 1026.6 1026.8 0.0
01/05:00am 8.7 5.8 8.3 97 0.2 NNW 13 17 7 9 1026.9 1027.1 0.0
01/04:30am 8.7 4.9 7.6 93 0.5 NNW 17 20 9 11 1026.9 1027.1 0.0
01/04:00am 8.9 5.9 7.8 93 0.5 NW 13 17 7 9 1027.2 1027.4 0.0
01/03:30am 8.9 5.5 7.5 91 0.7 NW 15 20 8 11 1027.3 1027.5 0.0
01/03:00am 8.8 6.4 6.9 88 0.9 NW 9 15 5 8 1027.7 1027.8 0.0
01/02:30am 8.9 5.7 6.7 86 1.0 NW 13 19 7 10 1027.6 1027.7 0.0
01/02:00am 8.8 5.1 6.4 85 1.1 NNW 15 19 8 10 1027.5 1027.6 0.0
01/01:30am 8.7 4.6 6.2 84 1.2 NNW 17 20 9 11 1027.8 1027.9 0.0
01/01:00am 7.1 3.3 6.0 93 0.5 NW 15 19 8 10 1028.0 1028.1 0.0
01/12:30am 5.6 2.1 5.5 99 0.0 N 13 17 7 9 1028.1 1028.2 0.0
01/12:00am 6.5 3.2 6.4 99 0.0 N 13 15 7 8 1028.4 1028.5 0.0
 
Date/Time
EST
Temp
°C
App
Temp
°C
Dew
Point
Rel
Hum
%
Delta-T
°C
Wind Press
QNH
hPa
Press
MSL
hPa
Rain
since 9 am
mm
Dir
 
Spd
km/h
Gust
km/h
Spd
kts
Gust
kts
30/11:30pm 6.0 3.0 5.9 99 0.0 NNW 11 13 6 7 1028.7 1028.8 0.0
30/11:00pm 7.0 3.8 7.0 100 0.0 N 13 15 7 8 1028.9 1029.0 0.0
30/10:30pm 5.8 2.7 5.7 99 0.0 N 11 13 6 7 1029.0 1029.1 0.0
30/10:00pm 5.2 2.0 5.1 99 0.0 N 11 13 6 7 1028.9 1029.0 0.0
30/09:30pm 7.0 4.2 6.9 99 0.0 N 11 13 6 7 1028.8 1028.9 0.0
30/09:00pm 8.4 6.3 8.3 99 0.0 N 9 9 5 5 1028.8 1028.9 0.0
30/08:30pm 9.0 8.8 8.9 99 0.0 CALM 0 0 0 0 1028.9 1029.0 0.0
30/08:00pm 9.4 8.1 9.3 99 0.0 W 6 7 3 4 1028.9 1029.0 0.0
30/07:30pm 9.5 8.1 9.4 99 0.0 WNW 7 9 4 5 1028.7 1028.8 0.0
30/07:00pm 9.5 8.1 9.4 99 0.0 SW 7 9 4 5 1028.6 1028.7 0.0
30/06:35pm 9.9 7.4 9.8 99 0.1 SSW 13 17 7 9 1028.5 1028.6 0.0
30/06:30pm 10.0 7.6 9.9 99 0.1 SW 13 17 7 9 1028.4 1028.5 0.0
30/06:18pm 10.1 8.0 9.9 99 0.1 WSW 11 17 6 9 1028.4 1028.5 0.0
30/06:00pm 10.1 8.4 9.9 99 0.1 WSW 9 9 5 5 1028.3 1028.4 0.0
30/05:30pm 10.0 7.9 9.9 99 0.1 SW 11 13 6 7 1028.2 1028.3 0.0
30/05:00pm 10.1 7.2 9.5 96 0.3 WSW 15 20 8 11 1028.1 1028.2 0.0
30/04:30pm 11.0 7.0 10.4 96 0.3 SW 22 28 12 15 1028.0 1028.1 0.0
30/04:22pm 11.2 6.9 10.7 97 0.3 SW 24 32 13 17 1027.9 1028.0 0.0
30/04:12pm 11.2 6.7 10.1 93 0.6 SW 24 32 13 17 1027.8 1027.9 0.0
30/04:00pm 11.4 7.7 10.1 92 0.7 SW 20 26 11 14 1027.7 1027.8 0.0
30/03:30pm 11.5 8.2 9.6 88 1.0 WSW 17 20 9 11 1027.6 1027.7 0.0
30/03:00pm 11.2 7.4 9.8 91 0.7 WSW 20 30 11 16 1027.6 1027.7 0.0
30/02:30pm 12.4 7.9 8.7 78 1.9 WSW 22 30 12 16 1027.5 1027.6 0.0
30/02:00pm 12.3 8.5 9.0 80 1.6 W 19 24 10 13 1027.7 1027.8 0.0
30/01:30pm 12.4 8.2 8.3 76 2.0 WSW 20 24 11 13 1027.7 1027.8 0.0
30/01:00pm 12.7 9.3 9.0 78 1.9 W 17 22 9 12 1028.0 1028.1 0.0
30/12:30pm 12.8 9.1 9.3 79 1.8 WNW 19 26 10 14 1028.3 1028.4 0.0
30/12:00pm 12.0 8.4 8.5 79 1.7 WNW 17 24 9 13 1028.7 1028.8 0.0
30/11:30am 11.8 8.6 8.6 81 1.6 WNW 15 22 8 12 1029.2 1029.3 0.0
30/11:00am 11.8 8.5 8.1 78 1.8 NW 15 19 8 10 1029.4 1029.5 0.0
30/10:30am 12.2 9.3 8.3 77 1.9 NW 13 17 7 9 1029.3 1029.4 0.0
30/10:00am 10.8 7.8 7.9 82 1.4 NW 13 17 7 9 1029.3 1029.4 0.0
30/09:30am 10.5 7.5 7.7 83 1.4 NW 13 17 7 9 1029.4 1029.5 0.0
30/09:00am 9.5 6.5 7.6 88 0.9 NNW 13 15 7 8 1029.3 1029.4 0.0
30/08:30am 9.2 6.9 7.6 90 0.8 NW 9 15 5 8 1029.3 1029.4 0.0
30/08:00am 8.8 6.6 7.9 94 0.4 NW 9 11 5 6 1029.2 1029.3 0.0
30/07:30am 8.9 7.2 8.5 97 0.2 NW 7 9 4 5 1029.0 1029.1 0.0
30/07:00am 8.9 7.2 8.5 97 0.2 NNW 7 9 4 5 1028.7 1028.8 0.0
30/06:30am 9.0 7.3 8.2 95 0.4 NNW 7 9 4 5 1028.5 1028.6 0.0
30/06:00am 9.0 6.9 8.4 96 0.3 NNW 9 9 5 5 1028.4 1028.5 0.0
30/05:30am 9.1 7.0 8.3 95 0.4 NNW 9 11 5 6 1028.3 1028.4 0.0
30/05:00am 9.1 7.1 8.8 98 0.1 NNW 9 11 5 6 1028.2 1028.3 0.0
30/04:30am 9.1 7.1 8.6 97 0.2 NW 9 11 5 6 1028.2 1028.3 0.0
30/04:00am 9.1 7.2 9.0 99 0.0 NW 9 11 5 6 1028.4 1028.5 0.0
30/03:30am 9.3 7.4 9.2 99 0.0 NW 9 11 5 6 1028.6 1028.7 0.0
30/03:00am 9.4 7.8 8.8 96 0.3 NW 7 11 4 6 1028.8 1028.9 0.0
30/02:30am 9.5 8.0 9.0 97 0.2 NW 7 11 4 6 1028.8 1028.9 0.0
30/02:00am 9.6 7.7 9.1 97 0.2 NW 9 11 5 6 1029.0 1029.1 0.0
30/01:30am 9.5 7.6 9.2 98 0.1 WNW 9 11 5 6 1029.1 1029.2 0.0
30/01:00am 9.5 7.7 9.4 99 0.0 NW 9 11 5 6 1029.3 1029.4 0.0
30/12:30am 9.8 7.6 9.2 96 0.3 NW 11 11 6 6 1029.5 1029.6 0.0
30/12:00am 9.8 8.2 8.9 94 0.4 NNW 7 11 4 6 1029.8 1029.9 0.0
 
Date/Time
EST
Temp
°C
App
Temp
°C
Dew
Point
Rel
Hum
%
Delta-T
°C
Wind Press
QNH
hPa
Press
MSL
hPa
Rain
since 9 am
mm
Dir
 
Spd
km/h
Gust
km/h
Spd
kts
Gust
kts
29/11:30pm 9.8 7.8 8.7 93 0.5 NW 9 11 5 6 1029.9 1030.0 0.0
29/11:00pm 9.7 7.8 9.2 97 0.2 NNW 9 13 5 7 1029.9 1030.0 0.0
29/10:30pm 9.8 8.0 9.3 97 0.2 NW 9 11 5 6 1030.1 1030.2 0.0
29/10:00pm 9.9 8.4 9.3 96 0.3 NW 7 9 4 5 1030.3 1030.4 0.0
29/09:30pm 10.0 8.2 9.4 96 0.3 NW 9 11 5 6 1030.4 1030.5 0.0
29/09:00pm 10.1 8.3 9.5 96 0.3 NW 9 11 5 6 1030.5 1030.6 0.0
29/08:30pm 10.2 8.4 9.3 94 0.4 NW 9 9 5 5 1030.5 1030.6 0.0
29/08:00pm 10.4 9.0 9.0 91 0.7 NW 6 9 3 5 1030.5 1030.6 0.0
29/07:30pm 10.8 9.2 8.9 88 0.9 WNW 7 9 4 5 1030.7 1030.8 0.0
29/07:00pm 10.6 8.7 9.0 90 0.8 W 9 11 5 6 1030.6 1030.7 0.0
29/06:30pm 10.7 10.4 8.8 88 0.9 CALM 0 0 0 0 1030.6 1030.7 0.0
29/06:00pm 10.8 10.6 9.2 90 0.8 CALM 0 6 0 3 1030.6 1030.7 0.0
29/05:30pm 11.0 9.7 9.3 89 0.9 N 6 7 3 4 1030.6 1030.7 0.0
29/05:00pm 11.4 9.9 9.0 85 1.2 NNW 7 7 4 4 1030.6 1030.7 0.0
29/04:30pm 11.9 10.3 8.9 82 1.5 NW 7 9 4 5 1030.7 1030.8 0.0
29/04:00pm 12.2 10.3 8.9 80 1.6 WNW 9 11 5 6 1030.9 1031.0 0.0
29/03:30pm 12.3 10.6 8.2 76 2.0 WNW 7 9 4 5 1031.1 1031.2 0.0
29/03:00pm 12.4 10.0 8.5 77 1.9 NW 11 17 6 9 1031.0 1031.1 0.0
29/02:30pm 12.7 11.0 7.6 71 2.5 NW 6 7 3 4 1031.2 1031.3 0.0
29/02:00pm 12.6 10.2 8.7 77 1.9 NW 11 15 6 8 1031.4 1031.5 0.0
29/01:30pm 12.2 10.0 7.9 75 2.1 W 9 13 5 7 1031.7 1031.8 0.0
29/01:00pm 12.2 9.7 8.1 76 2.0 WNW 11 15 6 8 1032.0 1032.1 0.0
29/12:30pm 12.1 9.4 8.8 80 1.7 WNW 13 17 7 9 1032.4 1032.5 0.0
29/12:00pm 12.1 9.5 9.3 83 1.4 W 13 17 7 9 1032.7 1032.8 0.0
29/11:30am 11.8 9.5 9.0 83 1.4 WNW 11 15 6 8 1033.0 1033.1 0.0
29/11:00am 11.3 8.6 9.0 86 1.1 NW 13 15 7 8 1033.3 1033.4 0.0
29/10:30am 11.2 9.0 9.3 88 1.0 NW 11 15 6 8 1033.6 1033.7 0.0
29/10:00am 10.7 8.9 9.6 93 0.5 NNW 9 11 5 6 1033.5 1033.6 0.0
29/09:30am 10.1 8.6 9.2 94 0.4 N 7 9 4 5 1033.4 1033.5 0.0
29/09:00am 9.7 7.8 9.1 96 0.3 NNW 9 13 5 7 1033.3 1033.4 0.0
29/08:30am 9.4 7.5 8.9 97 0.2 N 9 11 5 6 1033.1 1033.2 0.0
29/08:00am 9.2 6.7 8.4 95 0.4 NNW 11 13 6 7 1033.1 1033.2 0.0
29/07:30am 9.3 6.5 8.4 94 0.4 N 13 15 7 8 1033.0 1033.1 0.0
29/07:00am 9.4 7.0 8.5 94 0.4 N 11 15 6 8 1032.8 1032.9 0.0
29/06:30am 9.5 6.7 8.4 93 0.5 NNW 13 17 7 9 1032.8 1032.9 0.0
29/06:00am 9.6 6.8 8.4 92 0.6 N 13 15 7 8 1032.7 1032.8 0.0
29/05:30am 9.7 6.8 8.1 90 0.8 N 13 17 7 9 1032.6 1032.7 0.0
29/05:00am 9.8 7.3 8.1 89 0.8 NNW 11 13 6 7 1032.6 1032.7 0.0
29/04:30am 9.8 7.3 8.2 90 0.8 NNW 11 15 6 8 1032.7 1032.8 0.0
29/04:00am 9.9 7.0 8.3 90 0.8 NNW 13 15 7 8 1032.9 1033.0 0.0
29/03:30am 9.9 7.4 8.0 88 0.9 NW 11 13 6 7 1033.1 1033.2 0.0
29/03:00am 10.0 7.0 7.9 87 1.0 NW 13 17 7 9 1033.1 1033.2 0.0
29/02:30am 9.9 7.0 8.3 90 0.8 NW 13 15 7 8 1033.1 1033.2 0.0
29/02:00am 9.9 7.8 8.2 89 0.8 NNW 9 13 5 7 1033.1 1033.2 0.0
29/01:30am 9.9 7.4 8.3 90 0.8 NW 11 13 6 7 1033.2 1033.3 0.0
29/01:00am 9.9 7.8 8.3 90 0.8 NW 9 13 5 7 1033.3 1033.4 0.0
29/12:30am 10.1 8.4 8.5 90 0.8 NW 7 13 4 7 1033.4 1033.5 0.0
29/12:00am 10.2 8.7 9.1 93 0.5 W 7 9 4 5 1033.6 1033.7 0.0
 
Date/Time
EST
Temp
°C
App
Temp
°C
Dew
Point
Rel
Hum
%
Delta-T
°C
Wind Press
QNH
hPa
Press
MSL
hPa
Rain
since 9 am
mm
Dir
 
Spd
km/h
Gust
km/h
Spd
kts
Gust
kts
28/11:30pm 10.2 7.8 8.6 90 0.8 WSW 11 15 6 8 1033.7 1033.8 0.0
28/11:00pm 10.2 8.4 9.3 94 0.4 W 9 11 5 6 1033.8 1033.9 0.0
28/10:30pm 10.3 8.0 8.9 91 0.7 WNW 11 13 6 7 1033.8 1033.9 0.0
28/10:00pm 10.4 8.2 8.0 85 1.2 WNW 9 11 5 6 1033.9 1034.0 0.0
28/09:30pm 10.4 8.2 7.8 84 1.3 WNW 9 13 5 7 1034.0 1034.1 0.0
28/09:00pm 10.3 8.2 8.2 87 1.0 NW 9 11 5 6 1034.0 1034.1 0.0
28/08:30pm 10.6 8.4 7.8 83 1.4 WNW 9 11 5 6 1034.1 1034.2 0.0
28/08:00pm 10.7 8.9 7.8 82 1.4 WNW 7 9 4 5 1034.1 1034.2 0.0
28/07:30pm 10.6 8.7 7.7 82 1.4 NW 7 9 4 5 1034.1 1034.2 0.0
28/07:00pm 10.6 8.1 8.0 84 1.3 NW 11 15 6 8 1033.9 1034.0 0.0
28/06:30pm 11.0 8.5 8.0 82 1.5 WNW 11 15 6 8 1033.8 1033.9 0.0
28/06:00pm 10.8 8.4 8.6 86 1.1 NW 11 15 6 8 1033.6 1033.7 0.0
28/05:30pm 11.1 8.9 7.8 80 1.6 WNW 9 13 5 7 1033.5 1033.6 0.0
28/05:00pm 11.4 7.5 7.1 75 2.0 W 17 26 9 14 1033.3 1033.4 0.0
28/04:30pm 11.4 8.6 8.4 82 1.5 W 13 15 7 8 1033.4 1033.5 0.0
28/04:00pm 11.7 8.1 8.2 79 1.7 W 17 20 9 11 1033.4 1033.5 0.0
28/03:30pm 12.1 8.9 8.4 78 1.8 W 15 20 8 11 1033.3 1033.4 0.0
28/03:00pm 12.2 7.8 7.3 72 2.4 W 20 28 11 15 1033.2 1033.3 0.0
28/02:30pm 12.1 8.1 8.4 78 1.8 W 19 22 10 12 1033.2 1033.3 0.0
28/02:00pm 12.3 7.9 7.6 73 2.3 W 20 28 11 15 1033.0 1033.1 0.0
28/01:30pm 12.8 7.8 8.1 73 2.3 W 24 32 13 17 1033.2 1033.3 0.0
28/01:00pm 12.8 8.7 8.5 75 2.1 W 20 26 11 14 1033.3 1033.4 0.0
28/12:30pm 12.6 8.7 8.7 77 2.0 W 19 26 10 14 1033.8 1033.9 0.0
28/12:00pm 12.8 9.6 9.8 82 1.5 W 17 22 9 12 1034.0 1034.1 0.0

Other Formats:

Comma delimited format used in spreadsheet applications
http://www.bom.gov.au/fwo/IDV60801/IDV60801.94837.axf

JavaScript Object Notation format (JSON) in row-major order
http://www.bom.gov.au/fwo/IDV60801/IDV60801.94837.json